sensor_id;sensor_type;location;lat;lon;timestamp;pressure;altitude;pressure_sealevel;temperature
76476;BMP280;65308;50.078;14.854;2023-04-03T00:00:03;99836.47;;;5.10
76476;BMP280;65308;50.078;14.854;2023-04-03T00:02:30;99834.94;;;5.19
76476;BMP280;65308;50.078;14.854;2023-04-03T00:04:57;99837.94;;;5.29
76476;BMP280;65308;50.078;14.854;2023-04-03T00:07:25;99842.91;;;5.19
76476;BMP280;65308;50.078;14.854;2023-04-03T00:09:51;99829.63;;;5.19
76476;BMP280;65308;50.078;14.854;2023-04-03T00:12:18;99840.25;;;5.09
76476;BMP280;65308;50.078;14.854;2023-04-03T00:14:45;99837.19;;;5.28
76476;BMP280;65308;50.078;14.854;2023-04-03T00:17:12;99840.97;;;5.27
76476;BMP280;65308;50.078;14.854;2023-04-03T00:19:38;99839.84;;;5.32
76476;BMP280;65308;50.078;14.854;2023-04-03T00:22:05;99843.28;;;5.21
76476;BMP280;65308;50.078;14.854;2023-04-03T00:24:33;99844.78;;;5.15
76476;BMP280;65308;50.078;14.854;2023-04-03T00:27:00;99839.88;;;5.17
76476;BMP280;65308;50.078;14.854;2023-04-03T00:29:26;99840.22;;;5.34
76476;BMP280;65308;50.078;14.854;2023-04-03T00:31:53;99840.97;;;5.45
76476;BMP280;65308;50.078;14.854;2023-04-03T00:34:20;99838.31;;;5.34
76476;BMP280;65308;50.078;14.854;2023-04-03T00:36:46;99843.66;;;5.38
76476;BMP280;65308;50.078;14.854;2023-04-03T00:39:13;99848.53;;;5.46
76476;BMP280;65308;50.078;14.854;2023-04-03T00:41:41;99841.72;;;5.45
76476;BMP280;65308;50.078;14.854;2023-04-03T00:44:21;99847.78;;;5.42
76476;BMP280;65308;50.078;14.854;2023-04-03T00:46:48;99845.53;;;5.30
76476;BMP280;65308;50.078;14.854;2023-04-03T00:49:16;99842.50;;;5.35
76476;BMP280;65308;50.078;14.854;2023-04-03T00:51:42;99847.00;;;5.42
76476;BMP280;65308;50.078;14.854;2023-04-03T00:54:09;99844.75;;;5.47
76476;BMP280;65308;50.078;14.854;2023-04-03T00:56:36;99846.28;;;5.45
76476;BMP280;65308;50.078;14.854;2023-04-03T00:59:08;99847.78;;;5.42
76476;BMP280;65308;50.078;14.854;2023-04-03T01:01:37;99857.25;;;5.51
76476;BMP280;65308;50.078;14.854;2023-04-03T01:04:04;99857.66;;;5.45
76476;BMP280;65308;50.078;14.854;2023-04-03T01:06:34;99859.56;;;5.34
76476;BMP280;65308;50.078;14.854;2023-04-03T01:09:01;99860.69;;;5.30
76476;BMP280;65308;50.078;14.854;2023-04-03T01:11:28;99862.97;;;5.38
76476;BMP280;65308;50.078;14.854;2023-04-03T01:13:55;99858.03;;;5.30
76476;BMP280;65308;50.078;14.854;2023-04-03T01:16:23;99866.78;;;5.19
76476;BMP280;65308;50.078;14.854;2023-04-03T01:18:49;99870.22;;;4.80
76476;BMP280;65308;50.078;14.854;2023-04-03T01:21:54;99868.31;;;4.74
76476;BMP280;65308;50.078;14.854;2023-04-03T01:24:30;99876.25;;;4.70
76476;BMP280;65308;50.078;14.854;2023-04-03T01:26:58;99876.63;;;4.62
76476;BMP280;65308;50.078;14.854;2023-04-03T01:29:25;99878.53;;;4.68
76476;BMP280;65308;50.078;14.854;2023-04-03T01:31:55;99879.94;;;4.26
76476;BMP280;65308;50.078;14.854;2023-04-03T01:34:23;99864.72;;;4.09
76476;BMP280;65308;50.078;14.854;2023-04-03T01:36:50;99874.78;;;3.75
76476;BMP280;65308;50.078;14.854;2023-04-03T01:39:17;99884.69;;;3.92
76476;BMP280;65308;50.078;14.854;2023-04-03T01:41:44;99882.06;;;3.92
76476;BMP280;65308;50.078;14.854;2023-04-03T01:44:12;99887.41;;;4.06
76476;BMP280;65308;50.078;14.854;2023-04-03T01:46:39;99890.06;;;4.06
76476;BMP280;65308;50.078;14.854;2023-04-03T01:49:08;99894.66;;;4.13
76476;BMP280;65308;50.078;14.854;2023-04-03T01:51:35;99897.63;;;4.04
76476;BMP280;65308;50.078;14.854;2023-04-03T01:54:02;99909.44;;;4.14
76476;BMP280;65308;50.078;14.854;2023-04-03T01:56:28;99902.25;;;4.15
76476;BMP280;65308;50.078;14.854;2023-04-03T01:58:55;99907.00;;;3.87
76476;BMP280;65308;50.078;14.854;2023-04-03T02:01:22;99909.53;;;3.66
76476;BMP280;65308;50.078;14.854;2023-04-03T02:03:48;99903.84;;;3.12
76476;BMP280;65308;50.078;14.854;2023-04-03T02:06:16;99905.00;;;3.18
76476;BMP280;65308;50.078;14.854;2023-04-03T02:08:43;99907.19;;;3.06
76476;BMP280;65308;50.078;14.854;2023-04-03T02:11:10;99901.50;;;3.04
76476;BMP280;65308;50.078;14.854;2023-04-03T02:13:36;99906.81;;;3.07
76476;BMP280;65308;50.078;14.854;2023-04-03T02:16:07;99917.91;;;3.23
76476;BMP280;65308;50.078;14.854;2023-04-03T02:18:35;99917.50;;;3.18
76476;BMP280;65308;50.078;14.854;2023-04-03T02:21:02;99915.53;;;3.11
76476;BMP280;65308;50.078;14.854;2023-04-03T02:23:30;99921.81;;;2.96
76476;BMP280;65308;50.078;14.854;2023-04-03T02:26:03;99920.75;;;3.00
76476;BMP280;65308;50.078;14.854;2023-04-03T02:28:30;99924.00;;;3.24
76476;BMP280;65308;50.078;14.854;2023-04-03T02:30:57;99922.91;;;3.36
76476;BMP280;65308;50.078;14.854;2023-04-03T02:33:24;99917.56;;;3.29
76476;BMP280;65308;50.078;14.854;2023-04-03T02:35:52;99921.00;;;3.29
76476;BMP280;65308;50.078;14.854;2023-04-03T02:38:19;99922.88;;;3.32
76476;BMP280;65308;50.078;14.854;2023-04-03T02:40:47;99931.81;;;3.13
76476;BMP280;65308;50.078;14.854;2023-04-03T02:43:14;99933.44;;;2.84
76476;BMP280;65308;50.078;14.854;2023-04-03T02:45:41;99931.13;;;2.83
76476;BMP280;65308;50.078;14.854;2023-04-03T02:48:08;99942.34;;;3.06
76476;BMP280;65308;50.078;14.854;2023-04-03T02:50:35;99931.44;;;3.15
76476;BMP280;65308;50.078;14.854;2023-04-03T02:53:01;99936.41;;;3.20
76476;BMP280;65308;50.078;14.854;2023-04-03T02:55:28;99944.22;;;3.06
76476;BMP280;65308;50.078;14.854;2023-04-03T02:57:56;99937.75;;;2.66
76476;BMP280;65308;50.078;14.854;2023-04-03T03:00:22;99954.19;;;2.82
76476;BMP280;65308;50.078;14.854;2023-04-03T03:02:49;99953.97;;;2.98
76476;BMP280;65308;50.078;14.854;2023-04-03T03:05:16;99952.00;;;2.91
76476;BMP280;65308;50.078;14.854;2023-04-03T03:07:43;99955.44;;;2.95
76476;BMP280;65308;50.078;14.854;2023-04-03T03:10:10;99957.31;;;2.95
76476;BMP280;65308;50.078;14.854;2023-04-03T03:12:38;99954.63;;;2.91
76476;BMP280;65308;50.078;14.854;2023-04-03T03:15:08;99956.84;;;2.86
76476;BMP280;65308;50.078;14.854;2023-04-03T03:17:34;99959.63;;;2.32
76476;BMP280;65308;50.078;14.854;2023-04-03T03:20:01;99965.94;;;1.75
76476;BMP280;65308;50.078;14.854;2023-04-03T03:22:28;99954.72;;;1.78
76476;BMP280;65308;50.078;14.854;2023-04-03T03:24:55;99962.38;;;1.63
76476;BMP280;65308;50.078;14.854;2023-04-03T03:27:22;99949.91;;;1.37
76476;BMP280;65308;50.078;14.854;2023-04-03T03:29:49;99957.50;;;1.19
76476;BMP280;65308;50.078;14.854;2023-04-03T03:32:17;99964.84;;;1.30
76476;BMP280;65308;50.078;14.854;2023-04-03T03:34:44;99965.22;;;1.32
76476;BMP280;65308;50.078;14.854;2023-04-03T03:37:11;99964.94;;;1.14
76476;BMP280;65308;50.078;14.854;2023-04-03T03:39:38;99964.56;;;1.15
76476;BMP280;65308;50.078;14.854;2023-04-03T03:42:04;99965.72;;;0.95
76476;BMP280;65308;50.078;14.854;2023-04-03T03:44:31;99971.19;;;0.86
76476;BMP280;65308;50.078;14.854;2023-04-03T03:46:57;99958.50;;;0.72
76476;BMP280;65308;50.078;14.854;2023-04-03T03:49:26;99956.94;;;0.52
76476;BMP280;65308;50.078;14.854;2023-04-03T03:51:53;99964.13;;;0.35
76476;BMP280;65308;50.078;14.854;2023-04-03T03:54:20;99964.69;;;0.09
76476;BMP280;65308;50.078;14.854;2023-04-03T03:56:47;99966.03;;;0.03
76476;BMP280;65308;50.078;14.854;2023-04-03T03:59:13;99977.50;;;0.11
76476;BMP280;65308;50.078;14.854;2023-04-03T04:01:40;99963.94;;;0.09
76476;BMP280;65308;50.078;14.854;2023-04-03T04:04:07;99979.28;;;0.23
76476;BMP280;65308;50.078;14.854;2023-04-03T04:06:35;99965.28;;;0.03
76476;BMP280;65308;50.078;14.854;2023-04-03T04:09:01;99978.97;;;-0.08
76476;BMP280;65308;50.078;14.854;2023-04-03T04:11:28;99979.28;;;-0.09
76476;BMP280;65308;50.078;14.854;2023-04-03T04:13:54;99980.06;;;-0.25
76476;BMP280;65308;50.078;14.854;2023-04-03T04:16:21;99983.34;;;-0.28
76476;BMP280;65308;50.078;14.854;2023-04-03T04:18:47;99990.06;;;-0.30
76476;BMP280;65308;50.078;14.854;2023-04-03T04:21:14;99979.44;;;-0.34
76476;BMP280;65308;50.078;14.854;2023-04-03T04:23:42;99993.38;;;-0.17
76476;BMP280;65308;50.078;14.854;2023-04-03T04:26:09;100002.66;;;-0.08
76476;BMP280;65308;50.078;14.854;2023-04-03T04:28:35;99998.31;;;0.00
76476;BMP280;65308;50.078;14.854;2023-04-03T04:31:12;100002.81;;;-0.00
76476;BMP280;65308;50.078;14.854;2023-04-03T04:33:45;100003.81;;;-0.21
76476;BMP280;65308;50.078;14.854;2023-04-03T04:36:19;100003.66;;;-0.56
76476;BMP280;65308;50.078;14.854;2023-04-03T04:39:34;100014.91;;;-0.72
76476;BMP280;65308;50.078;14.854;2023-04-03T04:42:01;100013.38;;;-0.73
76476;BMP280;65308;50.078;14.854;2023-04-03T04:44:27;100015.41;;;-0.66
76476;BMP280;65308;50.078;14.854;2023-04-03T04:47:07;100013.47;;;-0.69
76476;BMP280;65308;50.078;14.854;2023-04-03T04:49:35;100018.69;;;-0.57
76476;BMP280;65308;50.078;14.854;2023-04-03T04:52:02;100028.34;;;-0.17
76476;BMP280;65308;50.078;14.854;2023-04-03T04:54:34;100028.50;;;0.38
76476;BMP280;65308;50.078;14.854;2023-04-03T04:57:02;100036.41;;;0.54
76476;BMP280;65308;50.078;14.854;2023-04-03T04:59:41;100029.53;;;0.49
76476;BMP280;65308;50.078;14.854;2023-04-03T05:02:09;100029.97;;;0.35
76476;BMP280;65308;50.078;14.854;2023-04-03T05:04:36;100019.16;;;0.56
76476;BMP280;65308;50.078;14.854;2023-04-03T05:07:03;100024.66;;;0.87
76476;BMP280;65308;50.078;14.854;2023-04-03T05:09:31;100020.31;;;1.56
76476;BMP280;65308;50.078;14.854;2023-04-03T05:11:57;100030.25;;;1.86
76476;BMP280;65308;50.078;14.854;2023-04-03T05:14:25;100028.81;;;3.02
76476;BMP280;65308;50.078;14.854;2023-04-03T05:16:51;100035.44;;;4.11
76476;BMP280;65308;50.078;14.854;2023-04-03T05:19:19;100045.78;;;5.33
76476;BMP280;65308;50.078;14.854;2023-04-03T05:21:45;100055.88;;;6.59
76476;BMP280;65308;50.078;14.854;2023-04-03T05:24:12;100060.25;;;7.58
76476;BMP280;65308;50.078;14.854;2023-04-03T05:26:41;100065.81;;;8.77
76476;BMP280;65308;50.078;14.854;2023-04-03T05:29:08;100074.31;;;9.69
76476;BMP280;65308;50.078;14.854;2023-04-03T05:31:34;100068.50;;;10.70
76476;BMP280;65308;50.078;14.854;2023-04-03T05:34:01;100075.66;;;11.55
76476;BMP280;65308;50.078;14.854;2023-04-03T05:36:28;100075.13;;;12.18
76476;BMP280;65308;50.078;14.854;2023-04-03T05:38:54;100084.50;;;13.03
76476;BMP280;65308;50.078;14.854;2023-04-03T05:41:22;100088.47;;;13.90
76476;BMP280;65308;50.078;14.854;2023-04-03T05:43:51;100089.28;;;14.80
76476;BMP280;65308;50.078;14.854;2023-04-03T05:46:19;100099.34;;;15.44
76476;BMP280;65308;50.078;14.854;2023-04-03T05:48:46;100098.94;;;16.15
76476;BMP280;65308;50.078;14.854;2023-04-03T05:51:15;100099.91;;;16.60
76476;BMP280;65308;50.078;14.854;2023-04-03T05:53:43;100105.66;;;17.54
76476;BMP280;65308;50.078;14.854;2023-04-03T05:56:10;100111.72;;;17.64
76476;BMP280;65308;50.078;14.854;2023-04-03T05:58:37;100110.69;;;18.62
76476;BMP280;65308;50.078;14.854;2023-04-03T06:01:05;100118.41;;;19.41
76476;BMP280;65308;50.078;14.854;2023-04-03T06:03:32;100119.28;;;20.27
76476;BMP280;65308;50.078;14.854;2023-04-03T06:05:58;100121.03;;;21.07
76476;BMP280;65308;50.078;14.854;2023-04-03T06:08:25;100123.56;;;21.49
76476;BMP280;65308;50.078;14.854;2023-04-03T06:10:52;100123.75;;;21.91
76476;BMP280;65308;50.078;14.854;2023-04-03T06:13:18;100117.19;;;22.33
76476;BMP280;65308;50.078;14.854;2023-04-03T06:15:45;100126.50;;;23.01
76476;BMP280;65308;50.078;14.854;2023-04-03T06:18:14;100134.66;;;23.86
76476;BMP280;65308;50.078;14.854;2023-04-03T06:20:40;100134.25;;;24.44
76476;BMP280;65308;50.078;14.854;2023-04-03T06:23:07;100133.25;;;24.79
76476;BMP280;65308;50.078;14.854;2023-04-03T06:25:34;100133.34;;;25.05
76476;BMP280;65308;50.078;14.854;2023-04-03T06:28:00;100149.53;;;25.35
76476;BMP280;65308;50.078;14.854;2023-04-03T06:30:27;100142.84;;;25.63
76476;BMP280;65308;50.078;14.854;2023-04-03T06:32:54;100149.72;;;26.30
76476;BMP280;65308;50.078;14.854;2023-04-03T06:35:22;100155.88;;;26.57
76476;BMP280;65308;50.078;14.854;2023-04-03T06:37:50;100156.59;;;27.20
76476;BMP280;65308;50.078;14.854;2023-04-03T06:40:20;100157.88;;;27.48
76476;BMP280;65308;50.078;14.854;2023-04-03T06:42:47;100153.34;;;27.50
76476;BMP280;65308;50.078;14.854;2023-04-03T06:45:14;100157.69;;;28.18
76476;BMP280;65308;50.078;14.854;2023-04-03T06:47:41;100158.47;;;28.64
76476;BMP280;65308;50.078;14.854;2023-04-03T06:50:09;100163.94;;;29.48
76476;BMP280;65308;50.078;14.854;2023-04-03T06:52:41;100160.66;;;29.82
76476;BMP280;65308;50.078;14.854;2023-04-03T06:55:08;100158.88;;;30.10
76476;BMP280;65308;50.078;14.854;2023-04-03T06:57:35;100164.41;;;30.10
76476;BMP280;65308;50.078;14.854;2023-04-03T07:00:04;100169.19;;;30.67
76476;BMP280;65308;50.078;14.854;2023-04-03T07:02:31;100165.75;;;31.35
76476;BMP280;65308;50.078;14.854;2023-04-03T07:04:58;100174.69;;;31.26
76476;BMP280;65308;50.078;14.854;2023-04-03T07:07:25;100172.88;;;32.00
76476;BMP280;65308;50.078;14.854;2023-04-03T07:09:54;100172.28;;;31.47
76476;BMP280;65308;50.078;14.854;2023-04-03T07:12:21;100185.47;;;30.30
76476;BMP280;65308;50.078;14.854;2023-04-03T07:14:48;100177.13;;;30.38
76476;BMP280;65308;50.078;14.854;2023-04-03T07:17:14;100175.31;;;30.00
76476;BMP280;65308;50.078;14.854;2023-04-03T07:19:41;100184.06;;;29.81
76476;BMP280;65308;50.078;14.854;2023-04-03T07:22:08;100190.66;;;31.35
76476;BMP280;65308;50.078;14.854;2023-04-03T07:24:36;100189.59;;;31.92
76476;BMP280;65308;50.078;14.854;2023-04-03T07:27:04;100186.56;;;32.71
76476;BMP280;65308;50.078;14.854;2023-04-03T07:29:31;100194.94;;;33.48
76476;BMP280;65308;50.078;14.854;2023-04-03T07:31:58;100193.66;;;34.21
76476;BMP280;65308;50.078;14.854;2023-04-03T07:34:25;100198.72;;;34.34
76476;BMP280;65308;50.078;14.854;2023-04-03T07:36:52;100197.84;;;33.12
76476;BMP280;65308;50.078;14.854;2023-04-03T07:39:18;100172.28;;;32.84
76476;BMP280;65308;50.078;14.854;2023-04-03T07:41:45;100198.19;;;33.95
76476;BMP280;65308;50.078;14.854;2023-04-03T07:44:13;100190.47;;;34.15
76476;BMP280;65308;50.078;14.854;2023-04-03T07:46:40;100175.78;;;33.23
76476;BMP280;65308;50.078;14.854;2023-04-03T07:49:07;100160.84;;;32.15
76476;BMP280;65308;50.078;14.854;2023-04-03T07:51:34;100189.78;;;33.54
76476;BMP280;65308;50.078;14.854;2023-04-03T07:54:01;100158.75;;;30.33
76476;BMP280;65308;50.078;14.854;2023-04-03T07:56:27;100185.63;;;27.57
76476;BMP280;65308;50.078;14.854;2023-04-03T07:58:54;100188.97;;;28.51
76476;BMP280;65308;50.078;14.854;2023-04-03T08:01:22;100193.91;;;30.40
76476;BMP280;65308;50.078;14.854;2023-04-03T08:03:49;100201.38;;;30.47
76476;BMP280;65308;50.078;14.854;2023-04-03T08:06:16;100164.63;;;30.62
76476;BMP280;65308;50.078;14.854;2023-04-03T08:08:43;100158.84;;;28.45
76476;BMP280;65308;50.078;14.854;2023-04-03T08:11:10;100165.19;;;26.54
76476;BMP280;65308;50.078;14.854;2023-04-03T08:13:38;100166.34;;;26.45
76476;BMP280;65308;50.078;14.854;2023-04-03T08:16:08;100164.75;;;22.96
76476;BMP280;65308;50.078;14.854;2023-04-03T08:18:36;100155.16;;;19.36
76476;BMP280;65308;50.078;14.854;2023-04-03T08:21:06;100152.47;;;19.16
76476;BMP280;65308;50.078;14.854;2023-04-03T08:23:36;100150.25;;;18.18
76476;BMP280;65308;50.078;14.854;2023-04-03T08:26:09;100172.56;;;21.16
76476;BMP280;65308;50.078;14.854;2023-04-03T08:28:36;100157.16;;;22.77
76476;BMP280;65308;50.078;14.854;2023-04-03T08:31:05;100152.03;;;21.37
76476;BMP280;65308;50.078;14.854;2023-04-03T08:33:33;100165.09;;;20.03
76476;BMP280;65308;50.078;14.854;2023-04-03T08:36:03;100154.16;;;19.34
76476;BMP280;65308;50.078;14.854;2023-04-03T08:38:30;100160.72;;;18.25
76476;BMP280;65308;50.078;14.854;2023-04-03T08:41:04;100155.84;;;17.41
76476;BMP280;65308;50.078;14.854;2023-04-03T08:43:36;100156.41;;;16.82
76476;BMP280;65308;50.078;14.854;2023-04-03T08:46:11;100158.72;;;16.41
76476;BMP280;65308;50.078;14.854;2023-04-03T08:48:41;100156.31;;;16.67
76476;BMP280;65308;50.078;14.854;2023-04-03T08:51:14;100158.81;;;16.47
76476;BMP280;65308;50.078;14.854;2023-04-03T08:53:43;100147.81;;;16.17
76476;BMP280;65308;50.078;14.854;2023-04-03T08:56:14;100155.84;;;16.45
76476;BMP280;65308;50.078;14.854;2023-04-03T08:58:47;100151.47;;;16.14
76476;BMP280;65308;50.078;14.854;2023-04-03T09:01:19;100143.00;;;15.42
76476;BMP280;65308;50.078;14.854;2023-04-03T09:03:46;100153.34;;;15.71
76476;BMP280;65308;50.078;14.854;2023-04-03T09:06:17;100156.38;;;14.87
76476;BMP280;65308;50.078;14.854;2023-04-03T09:08:50;100156.00;;;15.25
76476;BMP280;65308;50.078;14.854;2023-04-03T09:11:21;100155.13;;;15.19
76476;BMP280;65308;50.078;14.854;2023-04-03T09:13:57;100165.03;;;14.73
76476;BMP280;65308;50.078;14.854;2023-04-03T09:16:36;100152.19;;;13.93
76476;BMP280;65308;50.078;14.854;2023-04-03T09:19:11;100155.97;;;13.26
76476;BMP280;65308;50.078;14.854;2023-04-03T09:21:42;100154.13;;;13.70
76476;BMP280;65308;50.078;14.854;2023-04-03T09:24:12;100162.63;;;13.91
76476;BMP280;65308;50.078;14.854;2023-04-03T09:26:43;100166.19;;;12.93
76476;BMP280;65308;50.078;14.854;2023-04-03T09:29:17;100166.31;;;11.93
76476;BMP280;65308;50.078;14.854;2023-04-03T09:31:44;100159.44;;;11.92
76476;BMP280;65308;50.078;14.854;2023-04-03T09:34:18;100165.81;;;11.98
76476;BMP280;65308;50.078;14.854;2023-04-03T09:36:49;100160.94;;;11.93
76476;BMP280;65308;50.078;14.854;2023-04-03T09:39:18;100164.09;;;12.04
76476;BMP280;65308;50.078;14.854;2023-04-03T09:41:58;100172.81;;;11.79
76476;BMP280;65308;50.078;14.854;2023-04-03T09:44:28;100163.88;;;11.82
76476;BMP280;65308;50.078;14.854;2023-04-03T09:46:55;100160.34;;;12.43
76476;BMP280;65308;50.078;14.854;2023-04-03T09:49:22;100158.91;;;12.26
76476;BMP280;65308;50.078;14.854;2023-04-03T09:51:50;100162.63;;;11.05
76476;BMP280;65308;50.078;14.854;2023-04-03T09:54:34;100166.78;;;11.42
76476;BMP280;65308;50.078;14.854;2023-04-03T09:57:15;100154.97;;;10.71
76476;BMP280;65308;50.078;14.854;2023-04-03T09:59:46;100165.75;;;10.67
76476;BMP280;65308;50.078;14.854;2023-04-03T10:02:34;100162.59;;;9.65
76476;BMP280;65308;50.078;14.854;2023-04-03T10:05:02;100160.19;;;9.21
76476;BMP280;65308;50.078;14.854;2023-04-03T10:07:32;100150.94;;;9.25
76476;BMP280;65308;50.078;14.854;2023-04-03T10:10:02;100152.88;;;9.75
76476;BMP280;65308;50.078;14.854;2023-04-03T10:12:29;100158.19;;;10.22
76476;BMP280;65308;50.078;14.854;2023-04-03T10:14:57;100157.91;;;10.36
76476;BMP280;65308;50.078;14.854;2023-04-03T10:17:32;100156.09;;;10.90
76476;BMP280;65308;50.078;14.854;2023-04-03T10:20:09;100148.44;;;11.24
76476;BMP280;65308;50.078;14.854;2023-04-03T10:22:46;100153.44;;;10.90
76476;BMP280;65308;50.078;14.854;2023-04-03T10:25:17;100149.03;;;11.32
76476;BMP280;65308;50.078;14.854;2023-04-03T10:27:53;100149.19;;;11.58
76476;BMP280;65308;50.078;14.854;2023-04-03T10:30:29;100143.19;;;10.84
76476;BMP280;65308;50.078;14.854;2023-04-03T10:33:05;100155.63;;;11.11
76476;BMP280;65308;50.078;14.854;2023-04-03T10:35:42;100148.63;;;10.97
76476;BMP280;65308;50.078;14.854;2023-04-03T10:38:18;100148.25;;;10.43
76476;BMP280;65308;50.078;14.854;2023-04-03T10:40:54;100141.59;;;10.11
76476;BMP280;65308;50.078;14.854;2023-04-03T10:43:33;100143.41;;;10.74
76476;BMP280;65308;50.078;14.854;2023-04-03T10:46:06;100146.41;;;10.40
76476;BMP280;65308;50.078;14.854;2023-04-03T10:48:40;100148.22;;;10.63
76476;BMP280;65308;50.078;14.854;2023-04-03T10:51:15;100141.16;;;11.41
76476;BMP280;65308;50.078;14.854;2023-04-03T10:53:54;100138.81;;;11.27
76476;BMP280;65308;50.078;14.854;2023-04-03T10:56:31;100130.44;;;11.08
76476;BMP280;65308;50.078;14.854;2023-04-03T10:59:02;100130.66;;;11.47
76476;BMP280;65308;50.078;14.854;2023-04-03T11:01:36;100125.06;;;11.87
76476;BMP280;65308;50.078;14.854;2023-04-03T11:04:06;100135.81;;;11.87
76476;BMP280;65308;50.078;14.854;2023-04-03T11:06:36;100134.59;;;11.59
76476;BMP280;65308;50.078;14.854;2023-04-03T11:09:14;100132.44;;;11.83
76476;BMP280;65308;50.078;14.854;2023-04-03T11:11:43;100133.84;;;11.58
76476;BMP280;65308;50.078;14.854;2023-04-03T11:14:13;100129.16;;;11.13
76476;BMP280;65308;50.078;14.854;2023-04-03T11:16:45;100122.06;;;11.39
76476;BMP280;65308;50.078;14.854;2023-04-03T11:19:17;100133.88;;;11.25
76476;BMP280;65308;50.078;14.854;2023-04-03T11:21:52;100134.38;;;11.04
76476;BMP280;65308;50.078;14.854;2023-04-03T11:24:25;100126.69;;;10.86
76476;BMP280;65308;50.078;14.854;2023-04-03T11:26:54;100129.34;;;11.39
76476;BMP280;65308;50.078;14.854;2023-04-03T11:29:24;100120.53;;;11.38
76476;BMP280;65308;50.078;14.854;2023-04-03T11:32:06;100113.16;;;11.88
76476;BMP280;65308;50.078;14.854;2023-04-03T11:34:38;100098.47;;;11.92
76476;BMP280;65308;50.078;14.854;2023-04-03T11:37:13;100106.69;;;11.56
76476;BMP280;65308;50.078;14.854;2023-04-03T11:39:48;100112.06;;;11.07
76476;BMP280;65308;50.078;14.854;2023-04-03T11:42:17;100105.47;;;11.28
76476;BMP280;65308;50.078;14.854;2023-04-03T11:45:16;100103.84;;;10.81
76476;BMP280;65308;50.078;14.854;2023-04-03T11:47:46;100102.19;;;10.31
76476;BMP280;65308;50.078;14.854;2023-04-03T11:50:40;100105.63;;;10.52
76476;BMP280;65308;50.078;14.854;2023-04-03T11:53:31;100102.75;;;10.43
76476;BMP280;65308;50.078;14.854;2023-04-03T11:56:27;100106.66;;;9.98
76476;BMP280;65308;50.078;14.854;2023-04-03T12:01:49;100104.06;;;8.66
76476;BMP280;65308;50.078;14.854;2023-04-03T12:04:18;100095.78;;;9.15
76476;BMP280;65308;50.078;14.854;2023-04-03T12:07:16;100094.31;;;8.83
76476;BMP280;65308;50.078;14.854;2023-04-03T12:10:16;100091.66;;;9.10
76476;BMP280;65308;50.078;14.854;2023-04-03T12:12:58;100090.22;;;9.29
76476;BMP280;65308;50.078;14.854;2023-04-03T12:15:57;100083.44;;;9.72
76476;BMP280;65308;50.078;14.854;2023-04-03T12:18:40;100079.47;;;9.09
76476;BMP280;65308;50.078;14.854;2023-04-03T12:21:09;100079.38;;;9.40
76476;BMP280;65308;50.078;14.854;2023-04-03T12:24:04;100091.72;;;9.77
76476;BMP280;65308;50.078;14.854;2023-04-03T12:26:36;100097.16;;;9.94
76476;BMP280;65308;50.078;14.854;2023-04-03T12:29:17;100097.19;;;9.23
76476;BMP280;65308;50.078;14.854;2023-04-03T12:31:52;100092.75;;;9.13
76476;BMP280;65308;50.078;14.854;2023-04-03T12:34:36;100087.09;;;9.58
76476;BMP280;65308;50.078;14.854;2023-04-03T12:37:19;100091.41;;;10.15
76476;BMP280;65308;50.078;14.854;2023-04-03T12:39:53;100093.22;;;10.02
76476;BMP280;65308;50.078;14.854;2023-04-03T12:42:38;100097.81;;;10.21
76476;BMP280;65308;50.078;14.854;2023-04-03T12:45:15;100093.16;;;8.19
76476;BMP280;65308;50.078;14.854;2023-04-03T12:47:44;100090.78;;;8.63
76476;BMP280;65308;50.078;14.854;2023-04-03T12:50:17;100095.78;;;9.15
76476;BMP280;65308;50.078;14.854;2023-04-03T12:52:49;100089.19;;;9.47
76476;BMP280;65308;50.078;14.854;2023-04-03T12:55:20;100093.31;;;9.01
76476;BMP280;65308;50.078;14.854;2023-04-03T12:57:47;100085.81;;;9.19
76476;BMP280;65308;50.078;14.854;2023-04-03T13:00:36;100090.13;;;8.82
76476;BMP280;65308;50.078;14.854;2023-04-03T13:03:21;100078.78;;;9.02
76476;BMP280;65308;50.078;14.854;2023-04-03T13:05:50;100092.66;;;9.44
76476;BMP280;65308;50.078;14.854;2023-04-03T13:08:18;100089.25;;;9.43
76476;BMP280;65308;50.078;14.854;2023-04-03T13:10:52;100080.81;;;8.36
76476;BMP280;65308;50.078;14.854;2023-04-03T13:13:21;100090.44;;;8.57
76476;BMP280;65308;50.078;14.854;2023-04-03T13:15:49;100083.78;;;8.73
76476;BMP280;65308;50.078;14.854;2023-04-03T13:18:29;100091.38;;;9.01
76476;BMP280;65308;50.078;14.854;2023-04-03T13:21:03;100089.78;;;8.12
76476;BMP280;65308;50.078;14.854;2023-04-03T13:23:32;100083.97;;;7.83
76476;BMP280;65308;50.078;14.854;2023-04-03T13:26:00;100088.81;;;7.53
76476;BMP280;65308;50.078;14.854;2023-04-03T13:28:30;100094.38;;;7.70
76476;BMP280;65308;50.078;14.854;2023-04-03T13:31:05;100089.41;;;7.72
76476;BMP280;65308;50.078;14.854;2023-04-03T13:33:34;100088.13;;;7.91
76476;BMP280;65308;50.078;14.854;2023-04-03T13:36:07;100093.81;;;7.89
76476;BMP280;65308;50.078;14.854;2023-04-03T13:38:34;100089.31;;;8.24
76476;BMP280;65308;50.078;14.854;2023-04-03T13:41:04;100081.94;;;8.66
76476;BMP280;65308;50.078;14.854;2023-04-03T13:43:33;100084.59;;;8.66
76476;BMP280;65308;50.078;14.854;2023-04-03T13:46:05;100085.28;;;8.74
76476;BMP280;65308;50.078;14.854;2023-04-03T13:48:40;100079.50;;;8.14
76476;BMP280;65308;50.078;14.854;2023-04-03T13:51:21;100074.97;;;8.11
76476;BMP280;65308;50.078;14.854;2023-04-03T13:53:52;100079.19;;;8.42
76476;BMP280;65308;50.078;14.854;2023-04-03T13:56:26;100087.56;;;8.44
76476;BMP280;65308;50.078;14.854;2023-04-03T13:58:58;100066.66;;;8.05
76476;BMP280;65308;50.078;14.854;2023-04-03T14:01:25;100068.28;;;7.95
76476;BMP280;65308;50.078;14.854;2023-04-03T14:04:00;100062.28;;;7.84
76476;BMP280;65308;50.078;14.854;2023-04-03T14:06:29;100075.91;;;7.90
76476;BMP280;65308;50.078;14.854;2023-04-03T14:08:55;100067.00;;;7.66
76476;BMP280;65308;50.078;14.854;2023-04-03T14:11:24;100068.97;;;7.99
76476;BMP280;65308;50.078;14.854;2023-04-03T14:13:55;100078.34;;;7.77